createdAt,value
2023-04-17T00:01:05.758Z,101620.39
2023-04-17T00:03:38.842Z,101620.28
2023-04-17T00:06:13.942Z,101621.31
2023-04-17T00:08:46.897Z,101622.80
2023-04-17T00:11:20.859Z,101625.03
2023-04-17T00:13:55.141Z,101625.71
2023-04-17T00:16:29.603Z,101626.68
2023-04-17T00:19:02.717Z,101635.94
2023-04-17T00:21:33.640Z,101638.06
2023-04-17T00:24:06.563Z,101640.24
2023-04-17T00:26:38.824Z,101644.36
2023-04-17T00:29:11.104Z,101647.42
2023-04-17T00:31:44.067Z,101646.56
2023-04-17T00:34:17.686Z,101649.08
2023-04-17T00:36:49.311Z,101647.45
2023-04-17T00:39:21.977Z,101645.84
2023-04-17T00:41:56.642Z,101646.73
2023-04-17T00:44:30.891Z,101645.17
2023-04-17T00:47:04.539Z,101643.96
2023-04-17T00:49:37.612Z,101641.23
2023-04-17T00:52:11.582Z,101639.83
2023-04-17T00:54:47.370Z,101642.60
2023-04-17T00:57:19.585Z,101638.08
2023-04-17T00:59:53.605Z,101640.48
2023-04-17T01:02:25.758Z,101643.50
2023-04-17T01:05:00.541Z,101644.31
2023-04-17T01:07:32.862Z,101647.41
2023-04-17T01:10:07.292Z,101651.15
2023-04-17T01:12:42.132Z,101654.73
2023-04-17T01:15:15.680Z,101654.95
2023-04-17T01:17:46.735Z,101649.31
2023-04-17T01:20:17.992Z,101654.20
2023-04-17T01:22:52.613Z,101656.26
2023-04-17T01:25:24.469Z,101654.85
2023-04-17T01:27:55.684Z,101653.17
2023-04-17T01:30:27.434Z,101654.69
2023-04-17T01:33:13.448Z,101656.77
2023-04-17T01:36:05.803Z,101656.72
2023-04-17T01:38:42.107Z,101655.86
2023-04-17T01:41:14.890Z,101657.77
2023-04-17T01:43:50.161Z,101657.55
2023-04-17T01:46:23.602Z,101661.21
2023-04-17T01:48:55.648Z,101661.66
2023-04-17T01:51:28.593Z,101662.75
2023-04-17T01:54:03.326Z,101662.19
2023-04-17T01:56:36.631Z,101666.17
2023-04-17T01:59:09.430Z,101668.04
2023-04-17T02:01:46.121Z,101669.74
2023-04-17T02:04:17.089Z,101672.10
2023-04-17T02:06:48.938Z,101671.15
2023-04-17T02:09:21.681Z,101673.00
2023-04-17T02:11:55.819Z,101673.23
2023-04-17T02:14:27.820Z,101674.64
2023-04-17T02:17:04.847Z,101669.56
2023-04-17T02:19:40.094Z,101667.32
2023-04-17T02:22:18.887Z,101668.55
2023-04-17T02:24:51.602Z,101670.10
2023-04-17T02:27:26.849Z,101666.89
2023-04-17T02:30:19.764Z,101667.75
2023-04-17T02:32:52.779Z,101667.40
2023-04-17T02:35:27.747Z,101669.28
2023-04-17T02:38:02.431Z,101669.06
2023-04-17T02:40:34.991Z,101670.10
2023-04-17T02:43:06.456Z,101668.66
2023-04-17T02:45:41.588Z,101665.70
2023-04-17T02:48:24.003Z,101666.23
2023-04-17T02:50:56.286Z,101664.77
2023-04-17T02:53:29.388Z,101661.94
2023-04-17T02:56:03.013Z,101669.34
2023-04-17T02:58:36.954Z,101667.45
2023-04-17T03:01:11.007Z,101669.04
2023-04-17T03:03:48.089Z,101671.80
2023-04-17T03:06:25.666Z,101677.44
2023-04-17T03:08:57.156Z,101671.72
2023-04-17T03:11:30.928Z,101676.59
2023-04-17T03:14:02.585Z,101676.16
2023-04-17T03:16:36.530Z,101678.01
2023-04-17T03:19:09.225Z,101677.64
2023-04-17T03:21:46.106Z,101677.95
2023-04-17T03:24:18.941Z,101680.48
2023-04-17T03:26:52.937Z,101682.32
2023-04-17T03:29:24.899Z,101680.67
2023-04-17T03:31:58.241Z,101678.20
2023-04-17T03:34:35.007Z,101678.43
2023-04-17T03:37:06.519Z,101683.69
2023-04-17T03:39:38.077Z,101687.27
2023-04-17T03:42:13.989Z,101687.41
2023-04-17T03:44:48.096Z,101692.98
2023-04-17T03:47:21.759Z,101693.83
2023-04-17T03:49:55.820Z,101692.20
2023-04-17T03:52:30.745Z,101693.00
2023-04-17T03:55:04.508Z,101695.48
2023-04-17T03:57:45.988Z,101695.81
2023-04-17T04:00:22.262Z,101699.40
2023-04-17T04:02:58.010Z,101705.02
2023-04-17T04:05:48.852Z,101706.63
2023-04-17T04:08:22.755Z,101705.59
2023-04-17T04:10:56.410Z,101704.71
2023-04-17T04:13:36.365Z,101705.55
2023-04-17T04:16:10.478Z,101710.63
2023-04-17T04:18:49.078Z,101715.65
2023-04-17T04:21:23.139Z,101715.30
2023-04-17T04:23:56.737Z,101718.51
2023-04-17T04:26:28.994Z,101721.41
2023-04-17T04:29:12.719Z,101724.44
2023-04-17T04:32:10.425Z,101726.27
2023-04-17T04:34:46.752Z,101727.47
2023-04-17T04:37:23.006Z,101727.02
2023-04-17T04:40:02.395Z,101729.92
2023-04-17T04:42:35.602Z,101736.77
2023-04-17T04:45:25.330Z,101737.04
2023-04-17T04:48:00.736Z,101740.48
2023-04-17T04:50:34.414Z,101736.80
2023-04-17T04:53:07.246Z,101742.41
2023-04-17T04:56:06.944Z,101741.64
2023-04-17T04:58:50.414Z,101745.23
2023-04-17T05:01:24.145Z,101746.09
2023-04-17T05:03:58.048Z,101745.98
2023-04-17T05:06:33.683Z,101745.38
2023-04-17T05:09:08.704Z,101744.42
2023-04-17T05:11:41.115Z,101743.77
2023-04-17T05:14:15.624Z,101744.40
2023-04-17T05:16:48.330Z,101746.23
2023-04-17T05:19:24.989Z,101749.75
2023-04-17T05:22:07.419Z,101752.47
2023-04-17T05:24:44.018Z,101751.74
2023-04-17T05:27:16.011Z,101757.06
2023-04-17T05:29:49.854Z,101757.09
2023-04-17T05:32:24.732Z,101759.26
2023-04-17T05:35:00.136Z,101764.31
2023-04-17T05:37:32.033Z,101764.08
2023-04-17T05:40:07.307Z,101761.90
2023-04-17T05:42:39.325Z,101762.77
2023-04-17T05:45:14.960Z,101767.87
2023-04-17T05:47:48.049Z,101767.86
2023-04-17T05:50:20.944Z,101764.43
2023-04-17T05:52:53.082Z,101764.02
2023-04-17T05:55:27.337Z,101766.73
2023-04-17T05:58:10.422Z,101770.08
2023-04-17T06:00:49.496Z,101771.91
2023-04-17T06:03:25.302Z,101770.16
2023-04-17T06:06:04.935Z,101773.01
2023-04-17T06:08:37.990Z,101779.27
2023-04-17T06:11:12.339Z,101780.02
2023-04-17T06:13:44.446Z,101779.24
2023-04-17T06:16:18.396Z,101783.20
2023-04-17T06:18:52.598Z,101779.95
2023-04-17T06:21:23.778Z,101780.45
2023-04-17T06:23:58.571Z,101782.30
2023-04-17T06:26:32.661Z,101785.95
2023-04-17T06:29:04.559Z,101783.59
2023-04-17T06:31:39.034Z,101787.08
2023-04-17T06:34:12.462Z,101791.40
2023-04-17T06:36:48.708Z,101797.20
2023-04-17T06:39:21.749Z,101796.04
2023-04-17T06:41:56.869Z,101798.20
2023-04-17T06:44:32.033Z,101804.73
2023-04-17T06:47:05.403Z,101802.27
2023-04-17T06:49:36.824Z,101807.55
2023-04-17T06:52:08.936Z,101808.18
2023-04-17T06:54:41.267Z,101810.30
2023-04-17T06:57:14.589Z,101810.71
2023-04-17T06:59:47.898Z,101813.37
2023-04-17T07:02:21.313Z,101807.23
2023-04-17T07:04:54.352Z,101807.95
2023-04-17T07:07:26.693Z,101806.59
2023-04-17T07:09:59.084Z,101811.13
2023-04-17T07:12:31.521Z,101810.63
2023-04-17T07:15:03.735Z,101808.61
2023-04-17T07:17:36.529Z,101816.73
2023-04-17T07:20:12.956Z,101814.88
2023-04-17T07:22:45.885Z,101814.77
2023-04-17T07:25:19.298Z,101815.74
2023-04-17T07:27:51.852Z,101816.23
2023-04-17T07:30:26.071Z,101816.23
2023-04-17T07:32:58.032Z,101822.05
2023-04-17T07:35:34.720Z,101824.64
2023-04-17T07:38:08.253Z,101822.34
2023-04-17T07:40:40.474Z,101824.70
2023-04-17T07:43:16.937Z,101826.29
2023-04-17T07:45:53.432Z,101826.10
2023-04-17T07:48:26.624Z,101827.80
2023-04-17T07:51:01.493Z,101828.05
2023-04-17T07:53:36.181Z,101831.98
2023-04-17T07:56:11.201Z,101831.19
2023-04-17T07:58:46.639Z,101833.86
2023-04-17T08:01:23.085Z,101835.64
2023-04-17T08:03:55.774Z,101837.50
2023-04-17T08:06:30.776Z,101835.92
2023-04-17T08:09:04.675Z,101836.02
2023-04-17T08:11:53.359Z,101836.95
2023-04-17T08:14:31.512Z,101828.00
2023-04-17T08:17:04.480Z,101833.75
2023-04-17T08:19:38.848Z,101832.45
2023-04-17T08:22:21.566Z,101834.83
2023-04-17T08:24:56.997Z,101838.27
2023-04-17T08:27:28.848Z,101839.64
2023-04-17T08:29:59.627Z,101842.43
2023-04-17T08:32:34.220Z,101844.25
2023-04-17T08:35:15.413Z,101846.90
2023-04-17T08:37:48.573Z,101849.45
2023-04-17T08:40:24.661Z,101850.22
2023-04-17T08:42:58.161Z,101851.25
2023-04-17T08:45:29.142Z,101846.81
2023-04-17T08:48:02.614Z,101851.90
2023-04-17T08:50:35.969Z,101855.50
2023-04-17T08:53:09.347Z,101850.91
2023-04-17T08:55:40.635Z,101851.29
2023-04-17T08:58:15.224Z,101847.25
2023-04-17T09:00:48.081Z,101848.41
2023-04-17T09:03:20.386Z,101851.59
2023-04-17T09:06:00.495Z,101846.98
2023-04-17T09:08:34.282Z,101854.73
2023-04-17T09:11:07.336Z,101855.04
2023-04-17T09:13:47.614Z,101854.86
2023-04-17T09:16:19.660Z,101859.02
2023-04-17T09:18:52.794Z,101855.07
2023-04-17T09:21:30.059Z,101854.48
2023-04-17T09:24:02.795Z,101853.48
2023-04-17T09:26:35.787Z,101855.15
2023-04-17T09:29:10.849Z,101852.81
2023-04-17T09:31:46.299Z,101849.95
2023-04-17T09:34:21.823Z,101854.42
2023-04-17T09:37:03.240Z,101848.61
2023-04-17T09:39:58.347Z,101857.23
2023-04-17T09:42:30.960Z,101855.88
2023-04-17T09:45:24.885Z,101858.71
2023-04-17T09:47:57.498Z,101858.55
2023-04-17T09:50:28.815Z,101861.50
2023-04-17T09:53:02.531Z,101863.10
2023-04-17T09:55:37.752Z,101860.02
2023-04-17T09:58:11.256Z,101865.60
2023-04-17T10:00:44.718Z,101862.98
2023-04-17T10:03:19.060Z,101862.45
2023-04-17T10:05:53.164Z,101861.89
2023-04-17T10:08:27.795Z,101862.61
2023-04-17T10:11:07.531Z,101862.59
2023-04-17T10:13:58.413Z,101867.23
2023-04-17T10:16:39.478Z,101863.10
2023-04-17T10:19:32.745Z,101860.29
2023-04-17T10:22:42.909Z,101861.35
2023-04-17T10:25:23.023Z,101864.02
2023-04-17T10:28:46.771Z,101858.98
2023-04-17T10:31:24.227Z,101865.80
2023-04-17T10:33:59.054Z,101861.04
2023-04-17T10:36:53.182Z,101861.48
2023-04-17T10:39:24.535Z,101860.16
2023-04-17T10:42:07.325Z,101857.80
2023-04-17T10:44:40.042Z,101864.08
2023-04-17T10:47:14.508Z,101860.33
2023-04-17T10:49:56.268Z,101858.38
2023-04-17T10:52:43.663Z,101860.45
2023-04-17T10:55:21.994Z,101860.41
2023-04-17T10:58:01.756Z,101860.33
2023-04-17T11:00:37.559Z,101860.02
2023-04-17T11:03:16.231Z,101857.25
2023-04-17T11:05:52.900Z,101863.36
2023-04-17T11:08:34.517Z,101857.18
2023-04-17T11:11:11.922Z,101858.05
2023-04-17T11:13:50.936Z,101858.23
2023-04-17T11:16:23.601Z,101862.98
2023-04-17T11:19:00.072Z,101859.76
2023-04-17T11:21:33.468Z,101857.20
2023-04-17T11:24:12.929Z,101861.04
2023-04-17T11:26:49.470Z,101859.11
2023-04-17T11:29:22.253Z,101860.64
2023-04-17T11:31:56.889Z,101860.66
2023-04-17T11:34:28.658Z,101857.99
2023-04-17T11:37:03.314Z,101859.05
2023-04-17T11:39:37.875Z,101862.89
2023-04-17T11:42:08.956Z,101858.70
2023-04-17T11:44:45.568Z,101862.36
2023-04-17T11:47:20.916Z,101859.56
2023-04-17T11:49:55.346Z,101851.42
2023-04-17T11:52:29.840Z,101849.56
2023-04-17T11:55:01.982Z,101851.21
2023-04-17T11:57:43.668Z,101857.16
2023-04-17T12:00:27.275Z,101855.95
2023-04-17T12:03:02.092Z,101852.73
2023-04-17T12:05:37.178Z,101851.89
2023-04-17T12:08:10.384Z,101853.63
2023-04-17T12:10:48.270Z,101854.38
2023-04-17T12:13:21.811Z,101859.77
2023-04-17T12:15:54.029Z,101862.02
2023-04-17T12:18:28.302Z,101861.25
2023-04-17T12:20:58.911Z,101866.44
2023-04-17T12:23:33.013Z,101861.42
2023-04-17T12:26:06.018Z,101864.98
2023-04-17T12:28:39.585Z,101860.31
2023-04-17T12:31:12.474Z,101860.30
2023-04-17T12:33:42.471Z,101864.08
2023-04-17T12:36:18.258Z,101858.94
2023-04-17T12:38:55.361Z,101858.11
2023-04-17T12:41:34.521Z,101863.52
2023-04-17T12:44:11.912Z,101864.30
2023-04-17T12:46:45.582Z,101862.41
2023-04-17T12:49:23.812Z,101858.23
2023-04-17T12:52:01.635Z,101856.13
2023-04-17T12:54:41.461Z,101860.04
2023-04-17T12:57:15.893Z,101860.88
2023-04-17T12:59:47.645Z,101857.72
2023-04-17T13:02:21.969Z,101861.75
2023-04-17T13:04:57.208Z,101862.49
2023-04-17T13:07:32.111Z,101862.39
2023-04-17T13:10:04.016Z,101862.80
2023-04-17T13:12:37.068Z,101866.65
2023-04-17T13:15:14.955Z,101863.15
2023-04-17T13:17:48.902Z,101863.35
2023-04-17T13:20:20.860Z,101866.73
2023-04-17T13:22:54.931Z,101865.44
2023-04-17T13:25:27.445Z,101868.72
2023-04-17T13:27:59.888Z,101871.05
2023-04-17T13:30:32.856Z,101871.98
2023-04-17T13:33:05.038Z,101874.61
2023-04-17T13:35:37.357Z,101875.51
2023-04-17T13:38:13.371Z,101872.25
2023-04-17T13:40:46.034Z,101872.23
2023-04-17T13:43:19.322Z,101871.69
2023-04-17T13:45:57.361Z,101872.20
2023-04-17T13:48:31.092Z,101870.79
2023-04-17T13:51:12.394Z,101873.26
2023-04-17T13:53:46.540Z,101873.79
2023-04-17T13:56:17.809Z,101876.77
2023-04-17T13:58:53.814Z,101877.77
2023-04-17T14:01:27.048Z,101881.58
2023-04-17T14:04:00.447Z,101880.14
2023-04-17T14:06:33.708Z,101878.21
2023-04-17T14:09:08.199Z,101876.95
2023-04-17T14:11:41.245Z,101875.46
2023-04-17T14:14:15.605Z,101878.93
2023-04-17T14:16:48.048Z,101883.46
2023-04-17T14:19:20.350Z,101883.95
2023-04-17T14:22:04.218Z,101883.30
2023-04-17T14:24:37.025Z,101880.11
2023-04-17T14:27:09.853Z,101881.78
2023-04-17T14:29:45.061Z,101882.34
2023-04-17T14:32:34.726Z,101886.77
2023-04-17T14:35:25.991Z,101884.25
2023-04-17T14:38:17.597Z,101885.66
2023-04-17T14:40:49.821Z,101886.70
2023-04-17T14:43:21.685Z,101890.71
2023-04-17T14:45:53.687Z,101894.96
2023-04-17T14:48:26.771Z,101892.95
2023-04-17T14:50:59.476Z,101895.94
2023-04-17T14:53:32.591Z,101893.90
2023-04-17T14:56:05.994Z,101892.55
2023-04-17T14:58:39.371Z,101895.64
2023-04-17T15:01:12.267Z,101893.64
2023-04-17T15:03:48.462Z,101898.91
2023-04-17T15:06:21.658Z,101898.70
2023-04-17T15:08:53.262Z,101894.14
2023-04-17T15:11:25.053Z,101894.34
2023-04-17T15:13:56.777Z,101894.73
2023-04-17T15:16:28.802Z,101896.45
2023-04-17T15:19:01.521Z,101900.34
2023-04-17T15:21:33.687Z,101903.05
2023-04-17T15:24:06.094Z,101903.55
2023-04-17T15:26:45.016Z,101902.69
2023-04-17T15:29:17.262Z,101901.29
2023-04-17T15:31:48.678Z,101902.16
2023-04-17T15:34:22.907Z,101901.29
2023-04-17T15:36:55.515Z,101898.46
2023-04-17T15:39:27.432Z,101899.50
2023-04-17T15:41:58.614Z,101899.14
2023-04-17T15:44:31.034Z,101898.52
2023-04-17T15:47:03.209Z,101896.36
2023-04-17T15:49:35.636Z,101897.48
2023-04-17T15:52:09.610Z,101900.64
2023-04-17T15:54:42.313Z,101899.98
2023-04-17T15:57:13.501Z,101901.52
2023-04-17T15:59:45.869Z,101905.50
2023-04-17T16:02:17.140Z,101906.13
2023-04-17T16:04:48.970Z,101908.41
2023-04-17T16:07:22.373Z,101913.41
2023-04-17T16:09:55.729Z,101913.80
2023-04-17T16:12:30.329Z,101914.84
2023-04-17T16:15:02.796Z,101919.32
2023-04-17T16:17:34.816Z,101918.11
2023-04-17T16:20:08.452Z,101921.77
2023-04-17T16:22:41.440Z,101924.00
2023-04-17T16:25:16.955Z,101922.84
2023-04-17T16:27:48.771Z,101924.64
2023-04-17T16:30:22.129Z,101932.28
2023-04-17T16:32:56.253Z,101927.42
2023-04-17T16:35:30.185Z,101930.10
2023-04-17T16:38:05.346Z,101933.49
2023-04-17T16:40:38.645Z,101931.42
2023-04-17T16:43:10.940Z,101935.63
2023-04-17T16:45:43.265Z,101938.49
2023-04-17T16:48:15.634Z,101937.26
2023-04-17T16:50:48.699Z,101930.78
2023-04-17T16:53:21.529Z,101929.73
2023-04-17T16:55:54.449Z,101932.42
2023-04-17T16:58:28.288Z,101932.71
2023-04-17T17:00:59.030Z,101932.47
2023-04-17T17:03:31.924Z,101931.96
2023-04-17T17:06:04.597Z,101926.41
2023-04-17T17:08:38.119Z,101932.20
2023-04-17T17:11:11.451Z,101936.67
2023-04-17T17:13:44.582Z,101933.52
2023-04-17T17:16:19.204Z,101938.27
2023-04-17T17:18:54.385Z,101939.05
2023-04-17T17:21:28.482Z,101937.48
2023-04-17T17:24:01.508Z,101941.47
2023-04-17T17:26:34.829Z,101947.41
2023-04-17T17:29:07.440Z,101944.40
2023-04-17T17:31:39.362Z,101950.89
2023-04-17T17:37:04.957Z,101957.80
2023-04-17T17:39:37.891Z,101964.98
2023-04-17T17:42:09.907Z,101968.02
2023-04-17T17:44:43.905Z,101971.27
2023-04-17T17:47:17.280Z,101978.49
2023-04-17T17:49:49.493Z,101983.78
2023-04-17T17:52:20.770Z,101982.58
2023-04-17T17:54:52.933Z,101988.80
2023-04-17T17:57:35.692Z,101988.91
2023-04-17T18:00:22.056Z,101988.52
2023-04-17T18:02:55.406Z,101991.83
2023-04-17T18:05:27.674Z,101997.70
2023-04-17T18:08:02.204Z,102000.11
2023-04-17T18:10:33.723Z,102004.95
2023-04-17T18:13:06.712Z,102005.27
2023-04-17T18:15:44.930Z,102009.15
2023-04-17T18:18:17.598Z,102008.59
2023-04-17T18:20:49.520Z,102011.38
2023-04-17T18:23:23.261Z,102016.23
2023-04-17T18:26:02.735Z,102021.34
2023-04-17T18:28:35.903Z,102019.59
2023-04-17T18:31:09.013Z,102024.30
2023-04-17T18:33:41.447Z,102023.83
2023-04-17T18:36:14.558Z,102024.98
2023-04-17T18:38:49.133Z,102025.21
2023-04-17T18:41:23.388Z,102022.08
2023-04-17T18:43:55.479Z,102027.74
2023-04-17T18:46:30.633Z,102029.59
2023-04-17T18:49:06.139Z,102024.69
2023-04-17T18:51:41.527Z,102028.01
2023-04-17T18:54:15.353Z,102024.63
2023-04-17T18:56:49.159Z,102027.04
2023-04-17T18:59:25.605Z,102033.63
2023-04-17T19:01:57.419Z,102039.22
2023-04-17T19:04:31.659Z,102040.73
2023-04-17T19:07:05.665Z,102044.61
2023-04-17T19:09:39.613Z,102043.94
2023-04-17T19:12:13.461Z,102041.43
2023-04-17T19:14:45.270Z,102039.22
2023-04-17T19:17:18.089Z,102042.24
2023-04-17T19:19:49.643Z,102035.84
2023-04-17T19:22:21.277Z,102035.05
2023-04-17T19:24:53.307Z,102032.98
2023-04-17T19:27:27.349Z,102039.92
2023-04-17T19:30:00.417Z,102041.38
2023-04-17T19:32:33.580Z,102039.27
2023-04-17T19:35:05.656Z,102039.48
2023-04-17T19:37:37.949Z,102041.48
2023-04-17T19:40:24.208Z,102041.31
2023-04-17T19:43:01.312Z,102039.67
2023-04-17T19:45:33.846Z,102044.39
2023-04-17T19:48:06.949Z,102044.45
2023-04-17T19:50:38.297Z,102045.77
2023-04-17T19:53:12.078Z,102045.72
2023-04-17T19:55:43.003Z,102048.51
2023-04-17T19:58:16.266Z,102045.02
2023-04-17T20:00:48.962Z,102045.18
2023-04-17T20:03:20.276Z,102050.17
2023-04-17T20:05:53.060Z,102047.02
2023-04-17T20:08:25.990Z,102050.99
2023-04-17T20:10:58.151Z,102048.80
2023-04-17T20:13:29.568Z,102049.35
2023-04-17T20:16:02.262Z,102053.05
2023-04-17T20:18:34.406Z,102052.94
2023-04-17T20:21:06.700Z,102049.67
2023-04-17T20:23:40.174Z,102049.28
2023-04-17T20:26:13.722Z,102046.79
2023-04-17T20:28:45.421Z,102049.05
2023-04-17T20:31:19.011Z,102054.57
2023-04-17T20:33:50.795Z,102056.17
2023-04-17T20:36:24.196Z,102055.88
2023-04-17T20:38:57.502Z,102054.92
2023-04-17T20:41:32.180Z,102057.52
2023-04-17T20:44:04.861Z,102056.02
2023-04-17T20:46:39.495Z,102052.88
2023-04-17T20:49:12.387Z,102055.19
2023-04-17T20:51:45.169Z,102052.02
2023-04-17T20:54:17.329Z,102053.18
2023-04-17T20:56:49.934Z,102051.77
2023-04-17T20:59:22.734Z,102054.19
2023-04-17T21:01:54.756Z,102057.34
2023-04-17T21:04:26.166Z,102057.94
2023-04-17T21:06:58.486Z,102058.10
2023-04-17T21:09:29.956Z,102057.20
2023-04-17T21:12:01.673Z,102061.55
2023-04-17T21:14:35.567Z,102060.65
2023-04-17T21:17:07.267Z,102061.90
2023-04-17T21:19:38.931Z,102065.55
2023-04-17T21:22:18.070Z,102061.83
2023-04-17T21:24:51.459Z,102067.19
2023-04-17T21:27:22.589Z,102066.05
2023-04-17T21:29:54.820Z,102064.31
2023-04-17T21:32:27.503Z,102068.66
2023-04-17T21:35:11.371Z,102070.58
2023-04-17T21:37:45.928Z,102068.55
2023-04-17T21:40:18.163Z,102071.07
2023-04-17T21:42:50.881Z,102069.24
2023-04-17T21:45:21.815Z,102069.09
2023-04-17T21:47:53.450Z,102067.52
2023-04-17T21:50:27.540Z,102065.63
2023-04-17T21:53:01.717Z,102067.48
2023-04-17T21:55:34.125Z,102070.05
2023-04-17T21:58:05.931Z,102075.13
2023-04-17T22:00:38.454Z,102073.54
2023-04-17T22:03:11.108Z,102075.31
2023-04-17T22:05:44.336Z,102077.51
2023-04-17T22:08:17.183Z,102078.38
2023-04-17T22:10:49.565Z,102078.91
2023-04-17T22:13:23.811Z,102077.03
2023-04-17T22:16:01.273Z,102074.52
2023-04-17T22:18:33.074Z,102071.05
2023-04-17T22:21:06.182Z,102071.85
2023-04-17T22:23:39.747Z,102070.29
2023-04-17T22:26:12.913Z,102073.27
2023-04-17T22:28:44.997Z,102078.06
2023-04-17T22:31:17.306Z,102076.40
2023-04-17T22:33:50.085Z,102076.65
2023-04-17T22:36:21.733Z,102074.91
2023-04-17T22:38:54.537Z,102074.09
2023-04-17T22:41:27.442Z,102068.01
2023-04-17T22:44:00.026Z,102069.56
2023-04-17T22:46:31.602Z,102068.69
2023-04-17T22:49:06.579Z,102067.17
2023-04-17T22:51:38.709Z,102072.14
2023-04-17T22:54:22.098Z,102073.02
2023-04-17T22:56:54.652Z,102069.56
2023-04-17T22:59:28.678Z,102071.96
2023-04-17T23:02:00.150Z,102073.64
2023-04-17T23:04:33.166Z,102072.25
2023-04-17T23:07:06.659Z,102071.97
2023-04-17T23:09:39.141Z,102070.15
2023-04-17T23:12:11.439Z,102070.13
2023-04-17T23:14:46.059Z,102068.29
2023-04-17T23:17:17.902Z,102062.59
2023-04-17T23:19:50.644Z,102063.33
2023-04-17T23:22:22.560Z,102062.80
2023-04-17T23:24:55.125Z,102065.44
2023-04-17T23:27:27.925Z,102061.85
2023-04-17T23:30:01.779Z,102062.07
2023-04-17T23:32:34.672Z,102061.24
2023-04-17T23:35:15.006Z,102055.63
2023-04-17T23:37:48.286Z,102058.12
2023-04-17T23:40:23.800Z,102054.45
2023-04-17T23:42:55.266Z,102050.52
2023-04-17T23:45:26.183Z,102047.00
2023-04-17T23:48:00.902Z,102050.08
2023-04-17T23:50:32.846Z,102050.95
2023-04-17T23:53:09.751Z,102049.01
2023-04-17T23:55:46.486Z,102050.70
2023-04-17T23:58:18.842Z,102047.80
